Time;durP1;ratioP1;P1;durP2;ratioP2;P2;SDS_P1;SDS_P2;PMS_P1;PMS_P2;Temp;Humidity;BMP_temperature;BMP_pressure;BME280_temperature;BME280_humidity;BME280_pressure;Samples;Min_cycle;Max_cycle;Signal;HPM_P1;HPM_P2
2023/12/05 00:02:04;;;;;;;;;;;;;;;2.64;59.04;100086.69;4408927;32;32013;-78
2023/12/05 00:04:32;;;;;;;;;;;;;;;2.58;59.09;100096.44;4424266;32;34017;-78
2023/12/05 00:06:59;;;;;;;;;;;;;;;2.54;59.06;100085.94;4420583;32;33660;-80
2023/12/05 00:09:26;;;;;;;;;;;;;;;2.58;58.94;100091.31;4419086;32;34405;-77
2023/12/05 00:11:54;;;;;;;;;;;;;;;2.59;59.05;100098.22;4414979;32;34085;-76
2023/12/05 00:14:21;;;;;;;;;;;;;;;2.50;58.89;100099.25;4424838;32;34131;-77
2023/12/05 00:16:49;;;;;;;;;;;;;;;2.68;58.67;100083.59;4421545;32;34946;-75
2023/12/05 00:19:16;;;;;;;;;;;;;;;2.65;58.63;100083.38;4418079;32;34322;-77
2023/12/05 00:21:43;;;;;;;;;;;;;;;2.50;59.09;100088.16;4417101;32;33511;-77
2023/12/05 00:24:11;;;;;;;;;;;;;;;2.43;59.21;100096.97;4423690;32;34861;-79
2023/12/05 00:26:39;;;;;;;;;;;;;;;2.41;59.40;100098.50;4418447;32;33549;-77
2023/12/05 00:29:06;;;;;;;;;;;;;;;2.52;58.98;100082.38;4412020;32;33802;-79
2023/12/05 00:31:34;;;;;;;;;;;;;;;2.52;59.12;100087.50;4419329;32;33649;-79
2023/12/05 00:34:02;;;;;;;;;;;;;;;2.67;58.69;100086.97;4422491;32;33940;-78
2023/12/05 00:36:29;;;;;;;;;;;;;;;2.52;58.78;100087.50;4420983;32;33924;-80
2023/12/05 00:38:56;;;;;;;;;;;;;;;2.61;58.87;100086.44;4417879;32;34231;-77
2023/12/05 00:41:25;;;;;;;;;;;;;;;2.87;57.66;100075.75;4412060;32;33092;-79
2023/12/05 00:43:52;;;;;;;;;;;;;;;2.63;58.31;100078.13;4422338;32;34839;-79
2023/12/05 00:46:21;;;;;;;;;;;;;;;2.79;57.82;100067.47;4421611;32;33738;-78
2023/12/05 00:48:48;;;;;;;;;;;;;;;2.64;58.22;100086.69;4415307;32;33960;-78
2023/12/05 00:51:16;;;;;;;;;;;;;;;2.64;58.41;100087.59;4420609;32;34241;-79
2023/12/05 00:53:44;;;;;;;;;;;;;;;2.82;57.84;100090.75;4402617;32;34038;-78
2023/12/05 00:56:11;;;;;;;;;;;;;;;2.62;58.20;100085.69;4415698;32;34168;-77
2023/12/05 00:58:38;;;;;;;;;;;;;;;2.83;57.60;100089.06;4417487;32;33779;-76
2023/12/05 01:01:06;;;;;;;;;;;;;;;2.66;57.76;100085.16;4420662;32;33616;-77
2023/12/05 01:03:34;;;;;;;;;;;;;;;2.68;57.69;100079.38;4417965;32;33992;-77
2023/12/05 01:06:01;;;;;;;;;;;;;;;2.75;57.69;100080.78;4420502;32;34654;-76
2023/12/05 01:08:29;;;;;;;;;;;;;;;2.64;57.86;100086.69;4414256;32;34135;-78
2023/12/05 01:10:56;;;;;;;;;;;;;;;2.69;57.84;100080.28;4416846;32;33340;-80
2023/12/05 01:13:24;;;;;;;;;;;;;;;2.69;57.65;100078.63;4416907;32;34492;-78
2023/12/05 01:15:51;;;;;;;;;;;;;;;2.58;57.99;100065.75;4414493;32;33915;-78
2023/12/05 01:18:19;;;;;;;;;;;;;;;2.74;57.50;100073.88;4416867;32;34900;-78
2023/12/05 01:20:46;;;;;;;;;;;;;;;2.44;58.22;100068.09;4411978;32;33634;-80
2023/12/05 01:23:14;;;;;;;;;;;;;;;2.24;58.99;100070.66;4413048;32;33934;-79
2023/12/05 01:25:41;;;;;;;;;;;;;;;2.47;58.32;100058.13;4420602;32;34037;-77
2023/12/05 01:28:08;;;;;;;;;;;;;;;2.56;58.30;100051.16;4413235;32;34432;-77
2023/12/05 01:30:36;;;;;;;;;;;;;;;2.32;59.15;100031.31;4419149;32;34224;-80
2023/12/05 01:33:03;;;;;;;;;;;;;;;2.08;60.16;100025.09;4419235;32;33778;-77
2023/12/05 01:35:31;;;;;;;;;;;;;;;2.12;60.26;100011.78;4420213;32;33578;-77
2023/12/05 01:37:58;;;;;;;;;;;;;;;2.15;60.46;100002.72;4422344;32;32809;-80
2023/12/05 01:40:26;;;;;;;;;;;;;;;1.93;61.43;100004.28;4417639;32;33402;-77
2023/12/05 01:42:53;;;;;;;;;;;;;;;2.23;61.03;100002.44;4401646;32;34082;-77
2023/12/05 01:45:20;;;;;;;;;;;;;;;1.98;61.48;99995.34;4421901;32;34772;-79
2023/12/05 01:47:48;;;;;;;;;;;;;;;2.32;60.99;100008.31;4419310;32;34495;-80
2023/12/05 01:50:23;;;;;;;;;;;;;;;2.15;61.65;100001.81;4408162;32;33480;-77
2023/12/05 01:52:51;;;;;;;;;;;;;;;2.36;61.43;100020.56;4406732;32;33737;-77
2023/12/05 01:55:19;;;;;;;;;;;;;;;2.12;61.93;100007.56;4403958;32;33741;-76
2023/12/05 01:57:46;;;;;;;;;;;;;;;2.17;61.71;100001.16;4402959;32;34427;-77
2023/12/05 02:00:17;;;;;;;;;;;;;;;2.00;62.54;100000.56;4406995;32;33534;-78
2023/12/05 02:02:44;;;;;;;;;;;;;;;2.08;62.36;99985.09;4418119;32;33933;-77
2023/12/05 02:05:13;;;;;;;;;;;;;;;2.33;61.90;99987.06;4408489;32;34944;-78
2023/12/05 02:07:41;;;;;;;;;;;;;;;2.13;62.71;99993.16;4405938;32;34341;-80
2023/12/05 02:10:11;;;;;;;;;;;;;;;2.31;62.31;99983.50;4414023;32;33775;-79
2023/12/05 02:12:39;;;;;;;;;;;;;;;2.24;62.62;99981.22;4415397;32;34173;-75
2023/12/05 02:15:07;;;;;;;;;;;;;;;2.19;62.92;99972.31;4418973;32;34759;-77
2023/12/05 02:17:37;;;;;;;;;;;;;;;2.21;63.18;99971.66;4405938;32;34293;-80
2023/12/05 02:20:08;;;;;;;;;;;;;;;2.32;62.70;99964.84;4419104;32;31870;-75
2023/12/05 02:22:45;;;;;;;;;;;;;;;2.44;62.55;99965.81;4396169;32;33641;-79
2023/12/05 02:25:25;;;;;;;;;;;;;;;2.41;62.46;99960.44;4421915;32;33941;-76
2023/12/05 02:27:53;;;;;;;;;;;;;;;2.35;62.58;99957.41;4404249;32;34647;-80
2023/12/05 02:30:20;;;;;;;;;;;;;;;2.37;62.81;99948.19;4407085;32;32722;-75
2023/12/05 02:32:48;;;;;;;;;;;;;;;2.27;62.63;99943.13;4417713;32;33698;-79
2023/12/05 02:35:15;;;;;;;;;;;;;;;2.43;62.25;99938.44;4421713;32;34688;-78
2023/12/05 02:37:43;;;;;;;;;;;;;;;2.11;62.68;99943.56;4408993;32;33773;-77
2023/12/05 02:40:12;;;;;;;;;;;;;;;2.07;63.34;99942.44;4419200;32;34046;-79
2023/12/05 02:42:40;;;;;;;;;;;;;;;2.24;62.68;99940.31;4408087;32;34297;-79
2023/12/05 02:45:07;;;;;;;;;;;;;;;2.23;62.86;99951.34;4396676;32;34034;-78
2023/12/05 02:47:35;;;;;;;;;;;;;;;2.25;62.61;99944.69;4399344;32;34950;-77
2023/12/05 02:50:03;;;;;;;;;;;;;;;2.13;62.73;99948.03;4403576;32;34027;-79
2023/12/05 02:52:30;;;;;;;;;;;;;;;2.46;62.20;99948.94;4414610;32;33702;-77
2023/12/05 02:54:57;;;;;;;;;;;;;;;2.27;62.70;99945.69;4417908;32;33637;-77
2023/12/05 02:57:25;;;;;;;;;;;;;;;2.35;62.95;99944.62;4415514;32;34152;-77
2023/12/05 02:59:52;;;;;;;;;;;;;;;2.28;62.91;99942.34;4408937;32;33995;-79
2023/12/05 03:02:19;;;;;;;;;;;;;;;2.46;62.45;99938.69;4414989;32;33843;-79
2023/12/05 03:04:47;;;;;;;;;;;;;;;2.43;62.41;99938.44;4404773;32;33994;-79
2023/12/05 03:07:14;;;;;;;;;;;;;;;2.30;62.54;99930.59;4408352;32;34799;-78
2023/12/05 03:09:41;;;;;;;;;;;;;;;2.42;62.52;99931.56;4418027;32;33654;-78
2023/12/05 03:12:09;;;;;;;;;;;;;;;2.50;62.08;99930.50;4419556;32;34768;-79
2023/12/05 03:14:36;;;;;;;;;;;;;;;2.39;62.53;99931.31;4405140;32;34125;-78
2023/12/05 03:17:03;;;;;;;;;;;;;;;2.29;62.73;99929.69;4414604;32;34048;-78
2023/12/05 03:19:31;;;;;;;;;;;;;;;2.34;62.53;99918.19;4421329;32;34406;-77
2023/12/05 03:21:59;;;;;;;;;;;;;;;2.22;62.84;99919.78;4411410;32;34019;-79
2023/12/05 03:24:26;;;;;;;;;;;;;;;2.30;62.69;99915.28;4412135;32;33908;-79
2023/12/05 03:26:54;;;;;;;;;;;;;;;2.13;63.29;99912.25;4419055;32;34973;-79
2023/12/05 03:29:21;;;;;;;;;;;;;;;2.41;62.32;99918.66;4415650;32;33176;-79
2023/12/05 03:31:48;;;;;;;;;;;;;;;2.58;61.98;99907.19;4416376;32;34976;-76
2023/12/05 03:34:16;;;;;;;;;;;;;;;2.52;61.90;99903.38;4419523;32;34979;-77
2023/12/05 03:36:43;;;;;;;;;;;;;;;2.40;62.45;99901.56;4418698;32;33857;-77
2023/12/05 03:39:10;;;;;;;;;;;;;;;2.15;63.06;99899.59;4415361;32;32923;-77
2023/12/05 03:41:38;;;;;;;;;;;;;;;2.16;63.57;99886.97;4414914;32;33977;-80
2023/12/05 03:44:05;;;;;;;;;;;;;;;2.38;63.08;99893.75;4414172;32;34959;-78
2023/12/05 03:46:32;;;;;;;;;;;;;;;2.32;62.36;99883.06;4416467;32;33892;-78
2023/12/05 03:49:00;;;;;;;;;;;;;;;2.39;62.54;99892.97;4409420;32;33357;-77
2023/12/05 03:51:27;;;;;;;;;;;;;;;2.31;62.66;99891.47;4401760;32;33334;-80
2023/12/05 03:53:55;;;;;;;;;;;;;;;2.35;62.57;99903.72;4416485;32;34101;-81
2023/12/05 03:56:23;;;;;;;;;;;;;;;2.46;62.53;99892.69;4418695;32;34568;-79
2023/12/05 03:58:51;;;;;;;;;;;;;;;2.39;62.39;99892.97;4415070;32;33710;-81
2023/12/05 04:01:19;;;;;;;;;;;;;;;2.23;62.82;99890.88;4412915;32;34147;-79
2023/12/05 04:03:46;;;;;;;;;;;;;;;2.42;62.88;99889.78;4401600;32;33787;-80
2023/12/05 04:06:23;;;;;;;;;;;;;;;2.36;62.66;99875.72;4417696;32;32967;-80
2023/12/05 04:08:50;;;;;;;;;;;;;;;2.54;62.32;99871.16;4412813;32;33955;-78
2023/12/05 04:11:25;;;;;;;;;;;;;;;2.29;62.48;99872.56;4409408;32;34301;-79
2023/12/05 04:13:53;;;;;;;;;;;;;;;2.30;62.82;99874.38;4406233;32;34283;-76
2023/12/05 04:16:20;;;;;;;;;;;;;;;2.37;62.47;99876.63;4416968;32;34015;-75
2023/12/05 04:18:47;;;;;;;;;;;;;;;2.48;62.15;99870.69;4411977;32;33443;-81
2023/12/05 04:21:18;;;;;;;;;;;;;;;2.51;62.13;99865.81;4421872;32;34663;-81
2023/12/05 04:23:46;;;;;;;;;;;;;;;2.54;62.18;99870.25;4413904;32;33804;-79
2023/12/05 04:26:17;;;;;;;;;;;;;;;2.60;61.70;99869.84;4418421;32;35081;-75
2023/12/05 04:28:44;;;;;;;;;;;;;;;2.74;61.47;99871.78;4419927;32;33604;-78
2023/12/05 04:31:12;;;;;;;;;;;;;;;2.34;62.10;99869.59;4407042;32;33809;-77
2023/12/05 04:33:39;;;;;;;;;;;;;;;2.43;62.15;99869.41;4409988;32;34049;-81
2023/12/05 04:36:07;;;;;;;;;;;;;;;2.49;62.04;99877.59;4418842;32;34536;-77
2023/12/05 04:38:35;;;;;;;;;;;;;;;2.58;62.12;99871.41;4413986;32;32339;-78
2023/12/05 04:41:02;;;;;;;;;;;;;;;2.58;61.76;99877.41;4419355;32;34097;-76
2023/12/05 04:43:33;;;;;;;;;;;;;;;2.45;62.04;99870.44;4413664;32;34884;-78
2023/12/05 04:46:00;;;;;;;;;;;;;;;2.63;61.73;99876.09;4402420;32;34922;-79
2023/12/05 04:48:27;;;;;;;;;;;;;;;2.44;62.40;99878.00;4421295;32;34098;-76
2023/12/05 04:50:55;;;;;;;;;;;;;;;2.77;61.63;99874.59;4411015;32;34138;-79
2023/12/05 04:53:23;;;;;;;;;;;;;;;2.30;62.94;99874.38;4417435;32;33553;-78
2023/12/05 04:55:50;;;;;;;;;;;;;;;2.59;62.03;99868.97;4418759;32;35058;-76
2023/12/05 04:58:17;;;;;;;;;;;;;;;2.46;62.17;99874.78;4410169;32;33799;-79
2023/12/05 05:00:45;;;;;;;;;;;;;;;2.53;62.28;99874.50;4418631;32;34205;-77
2023/12/05 05:03:12;;;;;;;;;;;;;;;2.32;63.04;99871.16;4412003;32;34701;-79
2023/12/05 05:05:40;;;;;;;;;;;;;;;2.39;62.34;99889.53;4406523;32;34773;-78
2023/12/05 05:08:07;;;;;;;;;;;;;;;2.60;62.06;99874.97;4408264;32;32805;-77
2023/12/05 05:10:34;;;;;;;;;;;;;;;2.36;62.61;99874.84;4407812;32;34305;-79
2023/12/05 05:13:02;;;;;;;;;;;;;;;2.52;62.24;99874.38;4402478;32;33896;-78
2023/12/05 05:15:29;;;;;;;;;;;;;;;2.65;62.28;99878.78;4403479;32;34195;-78
2023/12/05 05:17:57;;;;;;;;;;;;;;;2.51;62.45;99886.28;4400642;32;33352;-77
2023/12/05 05:20:25;;;;;;;;;;;;;;;2.66;62.09;99880.53;4399250;32;32260;-79
2023/12/05 05:22:53;;;;;;;;;;;;;;;2.73;61.51;99877.69;4420720;32;33782;-76
2023/12/05 05:25:21;;;;;;;;;;;;;;;2.66;62.10;99880.53;4416960;32;36256;-77
2023/12/05 05:27:49;;;;;;;;;;;;;;;2.79;61.56;99878.16;4411531;32;34250;-79
2023/12/05 05:30:16;;;;;;;;;;;;;;;2.81;61.43;99876.59;4410658;32;34898;-81
2023/12/05 05:32:43;;;;;;;;;;;;;;;2.73;61.23;99878.56;4418512;32;34807;-80
2023/12/05 05:35:11;;;;;;;;;;;;;;;2.92;61.14;99875.75;4417606;32;34324;-80
2023/12/05 05:37:38;;;;;;;;;;;;;;;2.91;60.96;99883.31;4417222;32;33354;-78
2023/12/05 05:40:07;;;;;;;;;;;;;;;2.88;61.12;99875.44;4411617;32;34532;-79
2023/12/05 05:42:34;;;;;;;;;;;;;;;2.76;61.24;99877.91;4411584;32;34110;-76
2023/12/05 05:45:02;;;;;;;;;;;;;;;2.99;61.14;99878.78;4421040;32;34460;-79
2023/12/05 05:47:31;;;;;;;;;;;;;;;3.00;61.29;99878.03;4420544;32;33833;-81
2023/12/05 05:49:59;;;;;;;;;;;;;;;2.93;61.18;99882.66;4407208;32;34798;-80
2023/12/05 05:52:31;;;;;;;;;;;;;;;2.98;61.14;99885.56;4403844;32;32877;-78
2023/12/05 05:54:58;;;;;;;;;;;;;;;2.95;61.23;99881.13;4415030;32;34545;-78
2023/12/05 05:57:26;;;;;;;;;;;;;;;2.89;61.33;99875.50;4410456;32;32701;-79
2023/12/05 05:59:54;;;;;;;;;;;;;;;2.81;61.29;99870.59;4415552;32;34599;-76
2023/12/05 06:02:21;;;;;;;;;;;;;;;2.86;61.39;99879.50;4419758;32;34217;-79
2023/12/05 06:04:49;;;;;;;;;;;;;;;2.33;62.71;99885.69;4417029;32;34658;-78
2023/12/05 06:07:16;;;;;;;;;;;;;;;2.78;61.83;99872.91;4415730;32;33372;-79
2023/12/05 06:09:45;;;;;;;;;;;;;;;2.72;61.77;99868.22;4419056;32;34865;-76
2023/12/05 06:12:12;;;;;;;;;;;;;;;2.74;62.00;99874.34;4417110;32;33532;-77
2023/12/05 06:14:40;;;;;;;;;;;;;;;2.89;61.56;99880.63;4416551;32;34064;-78
2023/12/05 06:17:07;;;;;;;;;;;;;;;2.79;61.80;99883.28;4406440;32;31667;-76
2023/12/05 06:19:34;;;;;;;;;;;;;;;2.92;61.58;99880.88;4419141;32;33527;-77
2023/12/05 06:22:02;;;;;;;;;;;;;;;2.95;61.72;99873.44;4418114;32;33965;-79
2023/12/05 06:24:29;;;;;;;;;;;;;;;2.92;61.66;99882.56;4412452;32;36245;-78
2023/12/05 06:26:57;;;;;;;;;;;;;;;2.87;61.55;99887.31;4405512;32;33720;-78
2023/12/05 06:29:24;;;;;;;;;;;;;;;3.14;60.80;99890.19;4412660;32;33632;-79
2023/12/05 06:31:52;;;;;;;;;;;;;;;3.03;60.84;99886.78;4414764;32;34801;-79
2023/12/05 06:34:19;;;;;;;;;;;;;;;3.04;61.18;99885.16;4417100;32;34371;-77
2023/12/05 06:36:47;;;;;;;;;;;;;;;3.02;61.29;99886.69;4410952;32;34202;-75
2023/12/05 06:39:14;;;;;;;;;;;;;;;3.21;60.74;99879.63;4405273;32;33623;-79
2023/12/05 06:41:42;;;;;;;;;;;;;;;3.15;60.65;99869.81;4416436;32;34175;-77
2023/12/05 06:44:09;;;;;;;;;;;;;;;3.20;60.60;99877.84;4419371;32;34896;-78
2023/12/05 06:46:36;;;;;;;;;;;;;;;3.27;60.29;99869.84;4414336;32;33427;-77
2023/12/05 06:49:04;;;;;;;;;;;;;;;3.05;60.99;99871.56;4417333;32;34949;-77
2023/12/05 06:51:32;;;;;;;;;;;;;;;3.09;61.05;99869.38;4410671;32;33659;-78
2023/12/05 06:53:59;;;;;;;;;;;;;;;3.26;60.47;99873.16;4410820;32;34199;-80
2023/12/05 06:56:26;;;;;;;;;;;;;;;3.15;60.98;99869.81;4417644;32;34006;-76
2023/12/05 06:58:53;;;;;;;;;;;;;;;3.28;60.60;99871.66;4409843;32;33655;-76
2023/12/05 07:01:21;;;;;;;;;;;;;;;3.11;61.11;99879.69;4418297;32;34250;-76
2023/12/05 07:03:48;;;;;;;;;;;;;;;3.11;60.79;99887.37;4388173;32;32655;-77
2023/12/05 07:06:23;;;;;;;;;;;;;;;3.06;61.38;99889.59;4418136;32;33385;-79
2023/12/05 07:08:50;;;;;;;;;;;;;;;3.25;60.86;99898.69;4411963;32;33819;-79
2023/12/05 07:11:18;;;;;;;;;;;;;;;3.29;60.54;99896.44;4402604;32;33511;-80
2023/12/05 07:14:03;;;;;;;;;;;;;;;3.06;61.44;99898.94;4416276;32;33891;-77
2023/12/05 07:16:30;;;;;;;;;;;;;;;3.08;60.99;99897.41;4412866;32;34825;-80
2023/12/05 07:18:58;;;;;;;;;;;;;;;3.09;61.19;99899.16;4398156;32;34462;-78
2023/12/05 07:21:25;;;;;;;;;;;;;;;3.17;61.22;99898.09;4410414;32;34042;-76
2023/12/05 07:23:52;;;;;;;;;;;;;;;3.25;61.03;99902.13;4408734;32;34061;-77
2023/12/05 07:26:27;;;;;;;;;;;;;;;3.24;61.28;99905.44;4416693;32;34259;-76
2023/12/05 07:28:55;;;;;;;;;;;;;;;3.37;60.99;99902.16;4414587;32;32694;-77
2023/12/05 07:31:22;;;;;;;;;;;;;;;3.49;63.28;99904.72;4416843;32;34088;-79
2023/12/05 07:33:50;;;;;;;;;;;;;;;3.48;62.51;99905.53;4412918;32;32860;-78
2023/12/05 07:36:17;;;;;;;;;;;;;;;3.54;61.91;99914.53;4400002;32;32403;-77
2023/12/05 07:38:44;;;;;;;;;;;;;;;3.58;60.75;99915.66;4416987;32;34146;-76
2023/12/05 07:41:18;;;;;;;;;;;;;;;3.53;60.94;99909.28;4416637;32;34274;-79
2023/12/05 07:43:46;;;;;;;;;;;;;;;3.38;61.06;99915.81;4418485;32;34157;-77
2023/12/05 07:46:13;;;;;;;;;;;;;;;3.38;60.98;99919.31;4405549;32;33305;-76
2023/12/05 07:48:41;;;;;;;;;;;;;;;3.39;60.87;99921.06;4418562;32;33929;-78
2023/12/05 07:51:08;;;;;;;;;;;;;;;3.49;60.67;99907.28;4419072;32;33661;-77
2023/12/05 07:53:36;;;;;;;;;;;;;;;3.40;60.81;99911.72;4404512;32;34862;-79
2023/12/05 07:56:03;;;;;;;;;;;;;;;3.46;60.76;99907.97;4417833;32;34378;-77
2023/12/05 07:58:30;;;;;;;;;;;;;;;3.57;60.62;99907.84;4417351;32;34106;-77
2023/12/05 08:00:58;;;;;;;;;;;;;;;3.77;59.88;99904.19;4417757;32;34298;-79
2023/12/05 08:03:25;;;;;;;;;;;;;;;3.73;59.87;99903.09;4402877;32;32647;-78
2023/12/05 08:05:54;;;;;;;;;;;;;;;3.77;60.00;99896.50;4404038;32;33852;-78
2023/12/05 08:08:23;;;;;;;;;;;;;;;3.84;60.27;99902.19;4402146;32;33832;-79
2023/12/05 08:10:51;;;;;;;;;;;;;;;3.90;60.11;99906.88;4404798;32;34243;-78
2023/12/05 08:13:19;;;;;;;;;;;;;;;3.84;60.07;99898.72;4417820;32;34308;-77
2023/12/05 08:15:46;;;;;;;;;;;;;;;3.71;60.23;99890.16;4417214;32;33568;-80
2023/12/05 08:18:13;;;;;;;;;;;;;;;3.64;60.14;99887.03;4418174;32;33629;-77
2023/12/05 08:20:41;;;;;;;;;;;;;;;3.47;60.69;99890.91;4418675;32;34872;-80
2023/12/05 08:23:09;;;;;;;;;;;;;;;3.86;59.84;99907.41;4418535;32;34173;-78
2023/12/05 08:25:36;;;;;;;;;;;;;;;3.77;60.00;99899.06;4400262;32;34065;-78
2023/12/05 08:28:04;;;;;;;;;;;;;;;4.40;73.99;99896.78;4417310;32;34060;-77
2023/12/05 08:30:31;;;;;;;;;;;;;;;4.30;69.61;99899.47;4417854;32;33535;-78
2023/12/05 08:32:59;;;;;;;;;;;;;;;4.35;69.41;99898.16;4418893;32;35204;-77
2023/12/05 08:35:26;;;;;;;;;;;;;;;4.28;64.88;99901.06;4418280;32;33624;-77
2023/12/05 08:37:53;;;;;;;;;;;;;;;4.45;61.10;99900.56;4417155;32;34776;-78
2023/12/05 08:40:22;;;;;;;;;;;;;;;4.37;60.30;99908.53;4416612;32;34630;-78
2023/12/05 08:42:50;;;;;;;;;;;;;;;4.40;59.45;99901.91;4409109;32;34193;-76
2023/12/05 08:45:18;;;;;;;;;;;;;;;4.32;59.53;99903.94;4417408;32;34492;-76
2023/12/05 08:47:46;;;;;;;;;;;;;;;4.26;59.51;99898.38;4402566;32;33779;-76
2023/12/05 08:50:13;;;;;;;;;;;;;;;4.28;58.77;99901.06;4416747;32;34602;-78
2023/12/05 08:52:44;;;;;;;;;;;;;;;4.12;59.33;99893.94;4414277;32;34587;-78
2023/12/05 08:55:12;;;;;;;;;;;;;;;4.26;59.28;99897.47;4416036;32;33398;-78
2023/12/05 08:57:39;;;;;;;;;;;;;;;4.16;59.20;99889.94;4413886;32;34198;-74
2023/12/05 09:00:07;;;;;;;;;;;;;;;4.21;59.34;99891.12;4414913;32;34855;-76
2023/12/05 09:02:34;;;;;;;;;;;;;;;4.36;58.40;99893.91;4418464;32;34465;-78
2023/12/05 09:05:02;;;;;;;;;;;;;;;4.06;59.23;99899.53;4417789;32;33213;-79
2023/12/05 09:07:29;;;;;;;;;;;;;;;4.12;59.63;99893.94;4396730;32;32483;-77
2023/12/05 09:09:57;;;;;;;;;;;;;;;4.08;59.41;99897.94;4416769;32;32531;-79
2023/12/05 09:12:25;;;;;;;;;;;;;;;4.04;59.67;99897.62;4416148;32;34437;-77
2023/12/05 09:14:52;;;;;;;;;;;;;;;3.82;60.43;99902.84;4415742;32;33456;-77
2023/12/05 09:17:20;;;;;;;;;;;;;;;4.12;59.47;99901.63;4414788;32;34863;-78
2023/12/05 09:19:50;;;;;;;;;;;;;;;4.12;59.65;99905.09;4415198;32;34522;-76
2023/12/05 09:22:18;;;;;;;;;;;;;;;4.32;59.45;99897.91;4415213;32;34054;-79
2023/12/05 09:24:45;;;;;;;;;;;;;;;4.25;59.41;99901.72;4418354;32;33551;-80
2023/12/05 09:27:12;;;;;;;;;;;;;;;4.26;59.06;99898.38;4403708;32;33658;-77
2023/12/05 09:29:40;;;;;;;;;;;;;;;4.25;58.94;99893.13;4398320;32;34124;-76
2023/12/05 09:32:17;;;;;;;;;;;;;;;4.22;59.04;99890.38;4417526;32;33975;-76
2023/12/05 09:34:45;;;;;;;;;;;;;;;4.26;58.87;99893.25;4392395;32;31887;-78
2023/12/05 09:37:13;;;;;;;;;;;;;;;4.33;58.77;99879.19;4415641;32;33560;-78
2023/12/05 09:39:41;;;;;;;;;;;;;;;4.32;58.93;99885.09;4395072;32;34198;-77
2023/12/05 09:42:12;;;;;;;;;;;;;;;4.31;59.13;99883.34;4398355;32;35120;-78
2023/12/05 09:44:41;;;;;;;;;;;;;;;4.22;59.51;99877.53;4404497;32;32581;-77
2023/12/05 09:47:09;;;;;;;;;;;;;;;4.47;58.53;99868.22;4390257;32;34233;-76
2023/12/05 09:49:54;;;;;;;;;;;;;;;4.20;59.14;99867.16;4412330;32;34650;-78
2023/12/05 09:52:22;;;;;;;;;;;;;;;4.35;58.94;99872.50;4417889;32;34918;-78
2023/12/05 09:54:49;;;;;;;;;;;;;;;4.29;59.35;99872.97;4404278;32;34118;-77
2023/12/05 09:57:17;;;;;;;;;;;;;;;4.33;59.13;99864.69;4404033;32;34871;-76
2023/12/05 09:59:44;;;;;;;;;;;;;;;4.37;59.26;99862.34;4402996;32;34311;-77
2023/12/05 10:02:12;;;;;;;;;;;;;;;4.33;59.29;99859.56;4414761;32;33017;-76
2023/12/05 10:04:43;;;;;;;;;;;;;;;4.48;59.04;99848.56;4404249;32;33505;-74
2023/12/05 10:07:12;;;;;;;;;;;;;;;4.55;59.64;99845.66;4416118;32;34493;-76
2023/12/05 10:09:40;;;;;;;;;;;;;;;4.58;58.93;99842.41;4411915;32;34839;-76
2023/12/05 10:12:08;;;;;;;;;;;;;;;4.60;59.06;99834.06;4418403;32;33884;-76
2023/12/05 10:14:36;;;;;;;;;;;;;;;4.88;58.45;99826.53;4416987;32;33624;-77
2023/12/05 10:17:04;;;;;;;;;;;;;;;4.99;57.92;99823.84;4418886;32;34065;-76
2023/12/05 10:19:32;;;;;;;;;;;;;;;4.77;58.21;99817.25;4416241;32;34146;-76
2023/12/05 10:21:59;;;;;;;;;;;;;;;4.81;57.93;99816.66;4417131;32;34235;-76
2023/12/05 10:24:41;;;;;;;;;;;;;;;4.92;57.56;99808.03;4416516;32;33607;-75
2023/12/05 10:27:08;;;;;;;;;;;;;;;4.92;57.42;99817.37;4418030;32;34322;-76
2023/12/05 10:29:36;;;;;;;;;;;;;;;4.91;57.97;99816.50;4411926;32;34041;-76
2023/12/05 10:32:08;;;;;;;;;;;;;;;4.96;58.08;99808.22;4418479;32;35168;-76
2023/12/05 10:34:44;;;;;;;;;;;;;;;5.06;57.72;99802.87;4403033;32;32977;-74
2023/12/05 10:37:12;;;;;;;;;;;;;;;4.96;57.74;99797.94;4403371;32;33689;-75
2023/12/05 10:39:39;;;;;;;;;;;;;;;5.25;57.16;99795.66;4416811;32;32982;-75
2023/12/05 10:42:07;;;;;;;;;;;;;;;5.14;57.43;99788.91;4418515;32;34418;-75
2023/12/05 10:44:38;;;;;;;;;;;;;;;5.08;57.44;99793.63;4418191;32;33407;-75
2023/12/05 10:47:06;;;;;;;;;;;;;;;5.28;56.96;99798.41;4403078;32;34067;-75
2023/12/05 10:49:34;;;;;;;;;;;;;;;5.07;57.57;99802.13;4417397;32;34012;-75
2023/12/05 10:52:03;;;;;;;;;;;;;;;5.32;56.22;99789.22;4418292;32;34551;-76
2023/12/05 10:54:30;;;;;;;;;;;;;;;4.91;57.18;99774.53;4391986;32;34414;-76
2023/12/05 10:56:58;;;;;;;;;;;;;;;4.63;58.25;99772.66;4418231;32;34580;-76
2023/12/05 10:59:26;;;;;;;;;;;;;;;5.11;57.29;99773.28;4403238;32;32585;-74
2023/12/05 11:01:54;;;;;;;;;;;;;;;5.07;57.31;99772.19;4402515;32;34430;-76
2023/12/05 11:04:25;;;;;;;;;;;;;;;5.20;56.97;99773.91;4417380;32;33493;-76
2023/12/05 11:06:53;;;;;;;;;;;;;;;5.06;57.02;99782.34;4403755;32;32740;-75
2023/12/05 11:09:22;;;;;;;;;;;;;;;5.17;57.06;99783.94;4416066;32;33743;-75
2023/12/05 11:11:50;;;;;;;;;;;;;;;5.08;57.31;99788.47;4401447;32;34409;-75
2023/12/05 11:14:19;;;;;;;;;;;;;;;4.99;57.63;99799.03;4386515;32;31600;-76
2023/12/05 11:16:48;;;;;;;;;;;;;;;5.12;57.08;99785.34;4385278;32;32393;-75
2023/12/05 11:19:27;;;;;;;;;;;;;;;5.29;56.95;99789.91;4402024;32;33358;-75
2023/12/05 11:22:15;;;;;;;;;;;;;;;5.28;56.63;99782.97;4417123;32;34303;-74
2023/12/05 11:24:53;;;;;;;;;;;;;;;5.34;56.75;99782.50;4416956;32;33713;-77
2023/12/05 11:27:40;;;;;;;;;;;;;;;5.37;56.45;99782.72;4402973;32;32898;-77
2023/12/05 11:30:11;;;;;;;;;;;;;;;5.28;56.63;99777.84;4399451;32;33327;-76
2023/12/05 11:32:43;;;;;;;;;;;;;;;5.36;56.59;99777.47;4410705;32;34271;-75
2023/12/05 11:35:11;;;;;;;;;;;;;;;5.03;57.01;99784.72;4388599;32;34079;-76
2023/12/05 11:37:52;;;;;;;;;;;;;;;5.17;57.10;99778.81;4416027;32;33905;-75
2023/12/05 11:40:19;;;;;;;;;;;;;;;4.97;57.61;99784.34;4415190;32;34023;-76
2023/12/05 11:43:06;;;;;;;;;;;;;;;5.26;57.07;99784.56;4391576;32;34209;-76
2023/12/05 11:45:37;;;;;;;;;;;;;;;5.21;57.06;99780.78;4426821;32;33753;-76
2023/12/05 11:48:06;;;;;;;;;;;;;;;4.83;57.60;99781.72;4417382;32;34017;-76
2023/12/05 11:50:41;;;;;;;;;;;;;;;5.08;57.36;99778.22;4403134;32;33997;-77
2023/12/05 11:53:09;;;;;;;;;;;;;;;5.07;57.55;99784.16;4403666;32;35325;-75
2023/12/05 11:55:36;;;;;;;;;;;;;;;5.15;57.02;99782.97;4415347;32;34424;-76
2023/12/05 11:58:03;;;;;;;;;;;;;;;4.91;57.57;99785.69;4401203;32;34211;-76
2023/12/05 12:00:31;;;;;;;;;;;;;;;5.24;56.82;99780.13;4414855;32;32785;-77
2023/12/05 12:02:59;;;;;;;;;;;;;;;5.12;57.21;99782.78;4416571;32;34306;-76
2023/12/05 12:05:26;;;;;;;;;;;;;;;5.34;56.56;99781.63;4412529;32;32477;-76
2023/12/05 12:07:56;;;;;;;;;;;;;;;5.16;57.22;99777.06;4414185;32;33813;-77
2023/12/05 12:10:26;;;;;;;;;;;;;;;5.35;56.61;99773.09;4402804;32;33989;-74
2023/12/05 12:12:53;;;;;;;;;;;;;;;5.32;56.26;99773.81;4403847;32;35257;-76
2023/12/05 12:15:21;;;;;;;;;;;;;;;5.36;56.35;99772.31;4402374;32;34057;-77
2023/12/05 12:17:49;;;;;;;;;;;;;;;5.32;56.46;99769.53;4411879;32;34152;-76
2023/12/05 12:20:17;;;;;;;;;;;;;;;5.14;56.98;99768.38;4401603;32;34369;-75
2023/12/05 12:22:48;;;;;;;;;;;;;;;5.28;56.53;99772.72;4414206;32;34986;-76
2023/12/05 12:25:17;;;;;;;;;;;;;;;5.14;56.63;99770.94;4415934;32;33417;-77
2023/12/05 12:27:44;;;;;;;;;;;;;;;5.36;56.39;99762.94;4415021;32;33817;-75
2023/12/05 12:30:15;;;;;;;;;;;;;;;5.11;56.48;99765.59;4414930;32;33665;-76
2023/12/05 12:32:59;;;;;;;;;;;;;;;5.16;57.06;99759.09;4406015;32;34079;-76
2023/12/05 12:35:29;;;;;;;;;;;;;;;5.00;57.46;99762.28;4416680;32;33509;-75
2023/12/05 12:37:57;;;;;;;;;;;;;;;4.97;57.42;99761.22;4418637;32;32791;-76
2023/12/05 12:40:24;;;;;;;;;;;;;;;5.07;57.45;99771.31;4393116;32;33263;-76
2023/12/05 12:42:54;;;;;;;;;;;;;;;5.10;57.22;99766.38;4419794;32;34458;-76
2023/12/05 12:45:26;;;;;;;;;;;;;;;5.28;57.05;99759.00;4405219;32;32786;-78
2023/12/05 12:47:53;;;;;;;;;;;;;;;5.31;56.80;99770.34;4403185;32;36078;-78
2023/12/05 12:50:21;;;;;;;;;;;;;;;5.44;64.94;99758.28;4419571;32;34174;-77
2023/12/05 12:52:48;;;;;;;;;;;;;;;5.16;61.34;99766.78;4418779;32;34333;-76
2023/12/05 12:55:16;;;;;;;;;;;;;;;5.22;59.61;99761.16;4416232;32;33524;-78
2023/12/05 12:57:44;;;;;;;;;;;;;;;5.26;58.50;99764.03;4416721;32;34569;-76
2023/12/05 13:00:15;;;;;;;;;;;;;;;5.37;57.69;99766.38;4418408;32;33651;-76
2023/12/05 13:03:00;;;;;;;;;;;;;;;5.41;57.30;99755.50;4416863;32;33826;-77